sensor_id;sensor_type;location;lat;lon;timestamp;P1;durP1;ratioP1;P2;durP2;ratioP2
21505;SDS011;10914;48.886;9.394;2023-07-02T00:01:39;267.83;;;255.17;;
21505;SDS011;10914;48.886;9.394;2023-07-02T00:04:04;299.10;;;284.30;;
21505;SDS011;10914;48.886;9.394;2023-07-02T00:06:30;256.40;;;243.95;;
21505;SDS011;10914;48.886;9.394;2023-07-02T00:08:57;244.35;;;232.35;;
21505;SDS011;10914;48.886;9.394;2023-07-02T00:11:22;229.67;;;218.90;;
21505;SDS011;10914;48.886;9.394;2023-07-02T00:13:47;223.13;;;212.63;;
21505;SDS011;10914;48.886;9.394;2023-07-02T00:16:12;186.50;;;177.67;;
21505;SDS011;10914;48.886;9.394;2023-07-02T00:18:37;117.27;;;111.67;;
21505;SDS011;10914;48.886;9.394;2023-07-02T00:21:05;84.65;;;80.30;;
21505;SDS011;10914;48.886;9.394;2023-07-02T00:23:30;63.03;;;59.80;;
21505;SDS011;10914;48.886;9.394;2023-07-02T00:25:58;68.33;;;64.80;;
21505;SDS011;10914;48.886;9.394;2023-07-02T00:28:23;68.72;;;65.15;;
21505;SDS011;10914;48.886;9.394;2023-07-02T00:30:49;89.90;;;85.25;;
21505;SDS011;10914;48.886;9.394;2023-07-02T00:33:14;97.57;;;92.63;;
21505;SDS011;10914;48.886;9.394;2023-07-02T00:35:40;92.47;;;88.03;;
21505;SDS011;10914;48.886;9.394;2023-07-02T00:38:05;78.43;;;74.27;;
21505;SDS011;10914;48.886;9.394;2023-07-02T00:40:30;110.50;;;104.80;;
21505;SDS011;10914;48.886;9.394;2023-07-02T00:42:55;92.97;;;88.40;;
21505;SDS011;10914;48.886;9.394;2023-07-02T00:45:21;126.35;;;119.97;;
21505;SDS011;10914;48.886;9.394;2023-07-02T00:47:47;147.00;;;139.95;;
21505;SDS011;10914;48.886;9.394;2023-07-02T00:50:12;156.48;;;149.07;;
21505;SDS011;10914;48.886;9.394;2023-07-02T00:52:37;192.50;;;183.20;;
21505;SDS011;10914;48.886;9.394;2023-07-02T00:55:03;202.82;;;193.02;;
21505;SDS011;10914;48.886;9.394;2023-07-02T00:57:28;228.38;;;217.57;;
21505;SDS011;10914;48.886;9.394;2023-07-02T00:59:55;203.27;;;193.63;;
21505;SDS011;10914;48.886;9.394;2023-07-02T01:02:20;224.25;;;213.55;;
21505;SDS011;10914;48.886;9.394;2023-07-02T01:04:47;200.05;;;190.55;;
21505;SDS011;10914;48.886;9.394;2023-07-02T01:07:14;156.20;;;148.57;;
21505;SDS011;10914;48.886;9.394;2023-07-02T01:09:39;167.40;;;159.43;;
21505;SDS011;10914;48.886;9.394;2023-07-02T01:12:06;142.95;;;136.00;;
21505;SDS011;10914;48.886;9.394;2023-07-02T01:14:33;133.40;;;126.97;;
21505;SDS011;10914;48.886;9.394;2023-07-02T01:16:59;142.82;;;135.82;;
21505;SDS011;10914;48.886;9.394;2023-07-02T01:21:57;117.82;;;111.90;;
21505;SDS011;10914;48.886;9.394;2023-07-02T01:24:23;129.88;;;123.50;;
21505;SDS011;10914;48.886;9.394;2023-07-02T01:26:48;121.57;;;115.73;;
21505;SDS011;10914;48.886;9.394;2023-07-02T01:29:16;92.95;;;88.30;;
21505;SDS011;10914;48.886;9.394;2023-07-02T01:31:42;98.35;;;93.55;;
21505;SDS011;10914;48.886;9.394;2023-07-02T01:34:07;90.60;;;86.15;;
21505;SDS011;10914;48.886;9.394;2023-07-02T01:36:34;82.80;;;78.35;;
21505;SDS011;10914;48.886;9.394;2023-07-02T01:38:59;75.55;;;71.72;;
21505;SDS011;10914;48.886;9.394;2023-07-02T01:41:24;79.47;;;75.53;;
21505;SDS011;10914;48.886;9.394;2023-07-02T01:43:49;59.35;;;56.22;;
21505;SDS011;10914;48.886;9.394;2023-07-02T01:46:14;56.75;;;53.63;;
21505;SDS011;10914;48.886;9.394;2023-07-02T01:48:40;49.70;;;46.83;;
21505;SDS011;10914;48.886;9.394;2023-07-02T01:51:05;36.45;;;34.45;;
21505;SDS011;10914;48.886;9.394;2023-07-02T01:53:30;62.03;;;58.50;;
21505;SDS011;10914;48.886;9.394;2023-07-02T01:55:55;57.70;;;54.63;;
21505;SDS011;10914;48.886;9.394;2023-07-02T01:58:20;51.80;;;48.95;;
21505;SDS011;10914;48.886;9.394;2023-07-02T02:00:47;46.20;;;43.70;;
21505;SDS011;10914;48.886;9.394;2023-07-02T02:03:12;70.30;;;66.63;;
21505;SDS011;10914;48.886;9.394;2023-07-02T02:05:37;97.63;;;92.70;;
21505;SDS011;10914;48.886;9.394;2023-07-02T02:08:02;55.67;;;52.70;;
21505;SDS011;10914;48.886;9.394;2023-07-02T02:10:28;94.32;;;89.63;;
21505;SDS011;10914;48.886;9.394;2023-07-02T02:12:53;80.60;;;76.53;;
21505;SDS011;10914;48.886;9.394;2023-07-02T02:15:18;67.43;;;63.83;;
21505;SDS011;10914;48.886;9.394;2023-07-02T02:17:43;82.10;;;77.82;;
21505;SDS011;10914;48.886;9.394;2023-07-02T02:20:08;33.88;;;31.83;;
21505;SDS011;10914;48.886;9.394;2023-07-02T02:22:34;42.50;;;39.95;;
21505;SDS011;10914;48.886;9.394;2023-07-02T02:24:59;43.33;;;40.83;;
21505;SDS011;10914;48.886;9.394;2023-07-02T02:27:24;39.75;;;37.55;;
21505;SDS011;10914;48.886;9.394;2023-07-02T02:29:49;40.37;;;38.07;;
21505;SDS011;10914;48.886;9.394;2023-07-02T02:32:14;43.27;;;40.73;;
21505;SDS011;10914;48.886;9.394;2023-07-02T02:34:42;49.47;;;46.97;;
21505;SDS011;10914;48.886;9.394;2023-07-02T02:37:07;50.38;;;47.72;;
21505;SDS011;10914;48.886;9.394;2023-07-02T02:39:33;46.58;;;44.08;;
21505;SDS011;10914;48.886;9.394;2023-07-02T02:41:58;38.95;;;36.60;;
21505;SDS011;10914;48.886;9.394;2023-07-02T02:44:23;38.37;;;36.00;;
21505;SDS011;10914;48.886;9.394;2023-07-02T02:46:48;42.38;;;40.22;;
21505;SDS011;10914;48.886;9.394;2023-07-02T02:49:14;39.33;;;36.97;;
21505;SDS011;10914;48.886;9.394;2023-07-02T02:51:39;32.93;;;31.03;;
21505;SDS011;10914;48.886;9.394;2023-07-02T02:54:05;38.22;;;35.97;;
21505;SDS011;10914;48.886;9.394;2023-07-02T02:56:30;41.80;;;39.20;;
21505;SDS011;10914;48.886;9.394;2023-07-02T02:58:56;30.13;;;28.20;;
21505;SDS011;10914;48.886;9.394;2023-07-02T03:01:21;43.90;;;41.37;;
21505;SDS011;10914;48.886;9.394;2023-07-02T03:03:46;37.42;;;35.45;;
21505;SDS011;10914;48.886;9.394;2023-07-02T03:06:12;37.83;;;35.73;;
21505;SDS011;10914;48.886;9.394;2023-07-02T03:08:38;32.33;;;30.50;;
21505;SDS011;10914;48.886;9.394;2023-07-02T03:11:03;36.70;;;34.33;;
21505;SDS011;10914;48.886;9.394;2023-07-02T03:13:28;40.77;;;38.03;;
21505;SDS011;10914;48.886;9.394;2023-07-02T03:15:54;41.60;;;39.30;;
21505;SDS011;10914;48.886;9.394;2023-07-02T03:18:19;34.92;;;33.03;;
21505;SDS011;10914;48.886;9.394;2023-07-02T03:20:44;33.70;;;31.90;;
21505;SDS011;10914;48.886;9.394;2023-07-02T03:23:09;36.70;;;34.60;;
21505;SDS011;10914;48.886;9.394;2023-07-02T03:25:34;36.40;;;34.00;;
21505;SDS011;10914;48.886;9.394;2023-07-02T03:27:59;41.60;;;39.20;;
21505;SDS011;10914;48.886;9.394;2023-07-02T03:30:25;31.50;;;29.47;;
21505;SDS011;10914;48.886;9.394;2023-07-02T03:32:50;36.05;;;33.88;;
21505;SDS011;10914;48.886;9.394;2023-07-02T03:35:15;33.40;;;31.47;;
21505;SDS011;10914;48.886;9.394;2023-07-02T03:37:40;46.40;;;43.60;;
21505;SDS011;10914;48.886;9.394;2023-07-02T03:40:08;29.55;;;27.58;;
21505;SDS011;10914;48.886;9.394;2023-07-02T03:42:34;30.67;;;28.80;;
21505;SDS011;10914;48.886;9.394;2023-07-02T03:44:59;39.53;;;37.03;;
21505;SDS011;10914;48.886;9.394;2023-07-02T03:47:24;46.78;;;43.83;;
21505;SDS011;10914;48.886;9.394;2023-07-02T03:49:49;61.47;;;58.08;;
21505;SDS011;10914;48.886;9.394;2023-07-02T03:52:15;96.05;;;91.07;;
21505;SDS011;10914;48.886;9.394;2023-07-02T03:54:40;110.07;;;104.47;;
21505;SDS011;10914;48.886;9.394;2023-07-02T03:57:06;133.90;;;127.10;;
21505;SDS011;10914;48.886;9.394;2023-07-02T03:59:31;152.93;;;145.20;;
21505;SDS011;10914;48.886;9.394;2023-07-02T04:01:56;180.90;;;171.85;;
21505;SDS011;10914;48.886;9.394;2023-07-02T04:04:21;175.43;;;166.77;;
21505;SDS011;10914;48.886;9.394;2023-07-02T04:06:46;178.67;;;169.63;;
21505;SDS011;10914;48.886;9.394;2023-07-02T04:09:12;122.75;;;116.28;;
21505;SDS011;10914;48.886;9.394;2023-07-02T04:11:37;82.65;;;77.78;;
21505;SDS011;10914;48.886;9.394;2023-07-02T04:14:02;91.38;;;86.22;;
21505;SDS011;10914;48.886;9.394;2023-07-02T04:16:28;65.15;;;61.47;;
21505;SDS011;10914;48.886;9.394;2023-07-02T04:18:53;81.23;;;76.53;;
21505;SDS011;10914;48.886;9.394;2023-07-02T04:21:18;78.83;;;74.37;;
21505;SDS011;10914;48.886;9.394;2023-07-02T04:23:43;65.73;;;61.67;;
21505;SDS011;10914;48.886;9.394;2023-07-02T04:26:08;57.38;;;53.97;;
21505;SDS011;10914;48.886;9.394;2023-07-02T04:28:33;53.23;;;49.73;;
21505;SDS011;10914;48.886;9.394;2023-07-02T04:30:59;40.93;;;38.13;;
21505;SDS011;10914;48.886;9.394;2023-07-02T04:33:24;37.38;;;34.95;;
21505;SDS011;10914;48.886;9.394;2023-07-02T04:35:49;37.00;;;34.50;;
21505;SDS011;10914;48.886;9.394;2023-07-02T04:38:14;38.60;;;35.80;;
21505;SDS011;10914;48.886;9.394;2023-07-02T04:40:39;39.67;;;36.88;;
21505;SDS011;10914;48.886;9.394;2023-07-02T04:43:06;41.83;;;38.78;;
21505;SDS011;10914;48.886;9.394;2023-07-02T04:45:32;40.23;;;37.27;;
21505;SDS011;10914;48.886;9.394;2023-07-02T04:48:01;52.50;;;48.28;;
21505;SDS011;10914;48.886;9.394;2023-07-02T04:50:26;47.27;;;44.10;;
21505;SDS011;10914;48.886;9.394;2023-07-02T04:52:51;64.80;;;60.87;;
21505;SDS011;10914;48.886;9.394;2023-07-02T04:55:16;59.83;;;56.17;;
21505;SDS011;10914;48.886;9.394;2023-07-02T04:57:42;68.03;;;63.85;;
21505;SDS011;10914;48.886;9.394;2023-07-02T05:00:09;93.85;;;88.40;;
21505;SDS011;10914;48.886;9.394;2023-07-02T05:02:34;91.97;;;86.78;;
21505;SDS011;10914;48.886;9.394;2023-07-02T05:04:59;71.65;;;67.65;;
21505;SDS011;10914;48.886;9.394;2023-07-02T05:07:25;40.70;;;37.93;;
21505;SDS011;10914;48.886;9.394;2023-07-02T05:09:50;38.03;;;35.13;;
21505;SDS011;10914;48.886;9.394;2023-07-02T05:12:17;38.42;;;35.85;;
21505;SDS011;10914;48.886;9.394;2023-07-02T05:14:42;37.90;;;35.33;;
21505;SDS011;10914;48.886;9.394;2023-07-02T05:17:07;38.53;;;35.93;;
21505;SDS011;10914;48.886;9.394;2023-07-02T05:19:32;30.67;;;28.53;;
21505;SDS011;10914;48.886;9.394;2023-07-02T05:21:58;34.57;;;32.00;;
21505;SDS011;10914;48.886;9.394;2023-07-02T05:24:23;29.83;;;27.67;;
21505;SDS011;10914;48.886;9.394;2023-07-02T05:26:48;30.13;;;27.75;;
21505;SDS011;10914;48.886;9.394;2023-07-02T05:29:15;29.75;;;27.58;;
21505;SDS011;10914;48.886;9.394;2023-07-02T05:31:40;28.50;;;26.30;;
21505;SDS011;10914;48.886;9.394;2023-07-02T05:34:06;29.40;;;27.57;;
21505;SDS011;10914;48.886;9.394;2023-07-02T05:36:31;31.57;;;29.37;;
21505;SDS011;10914;48.886;9.394;2023-07-02T05:38:56;29.33;;;27.48;;
21505;SDS011;10914;48.886;9.394;2023-07-02T05:41:21;29.85;;;28.08;;
21505;SDS011;10914;48.886;9.394;2023-07-02T05:43:46;29.05;;;27.15;;
21505;SDS011;10914;48.886;9.394;2023-07-02T05:46:12;31.38;;;29.48;;
21505;SDS011;10914;48.886;9.394;2023-07-02T05:48:40;27.90;;;26.08;;
21505;SDS011;10914;48.886;9.394;2023-07-02T05:51:06;32.50;;;30.50;;
21505;SDS011;10914;48.886;9.394;2023-07-02T05:53:31;25.38;;;23.70;;
21505;SDS011;10914;48.886;9.394;2023-07-02T05:55:56;25.83;;;24.00;;
21505;SDS011;10914;48.886;9.394;2023-07-02T05:58:21;30.23;;;28.23;;
21505;SDS011;10914;48.886;9.394;2023-07-02T06:00:47;29.77;;;27.87;;
21505;SDS011;10914;48.886;9.394;2023-07-02T06:03:14;30.10;;;27.52;;
21505;SDS011;10914;48.886;9.394;2023-07-02T06:05:44;26.15;;;24.42;;
21505;SDS011;10914;48.886;9.394;2023-07-02T06:08:09;25.67;;;24.15;;
21505;SDS011;10914;48.886;9.394;2023-07-02T06:10:34;25.87;;;24.03;;
21505;SDS011;10914;48.886;9.394;2023-07-02T06:12:59;25.05;;;23.25;;
21505;SDS011;10914;48.886;9.394;2023-07-02T06:15:25;24.33;;;22.57;;
21505;SDS011;10914;48.886;9.394;2023-07-02T06:17:50;25.20;;;23.30;;
21505;SDS011;10914;48.886;9.394;2023-07-02T06:20:15;26.45;;;24.38;;
21505;SDS011;10914;48.886;9.394;2023-07-02T06:22:40;26.15;;;24.13;;
21505;SDS011;10914;48.886;9.394;2023-07-02T06:25:07;26.23;;;24.15;;
21505;SDS011;10914;48.886;9.394;2023-07-02T06:27:32;26.73;;;24.35;;
21505;SDS011;10914;48.886;9.394;2023-07-02T06:29:57;26.83;;;24.65;;
21505;SDS011;10914;48.886;9.394;2023-07-02T06:32:22;26.03;;;24.03;;
21505;SDS011;10914;48.886;9.394;2023-07-02T06:34:48;26.47;;;24.33;;
21505;SDS011;10914;48.886;9.394;2023-07-02T06:37:13;26.80;;;24.70;;
21505;SDS011;10914;48.886;9.394;2023-07-02T06:39:38;26.70;;;24.80;;
21505;SDS011;10914;48.886;9.394;2023-07-02T06:42:03;25.37;;;23.47;;
21505;SDS011;10914;48.886;9.394;2023-07-02T06:44:29;25.02;;;23.15;;
21505;SDS011;10914;48.886;9.394;2023-07-02T06:46:54;25.35;;;23.55;;
21505;SDS011;10914;48.886;9.394;2023-07-02T06:49:20;30.37;;;27.97;;
21505;SDS011;10914;48.886;9.394;2023-07-02T06:51:45;27.55;;;25.50;;
21505;SDS011;10914;48.886;9.394;2023-07-02T06:54:11;26.65;;;24.55;;
21505;SDS011;10914;48.886;9.394;2023-07-02T06:56:36;26.95;;;24.60;;
21505;SDS011;10914;48.886;9.394;2023-07-02T06:59:01;25.33;;;23.63;;
21505;SDS011;10914;48.886;9.394;2023-07-02T07:01:26;26.87;;;24.70;;
21505;SDS011;10914;48.886;9.394;2023-07-02T07:03:52;26.90;;;24.80;;
21505;SDS011;10914;48.886;9.394;2023-07-02T07:06:17;27.75;;;25.45;;
21505;SDS011;10914;48.886;9.394;2023-07-02T07:08:42;26.70;;;24.50;;
21505;SDS011;10914;48.886;9.394;2023-07-02T07:11:07;27.42;;;25.30;;
21505;SDS011;10914;48.886;9.394;2023-07-02T07:13:33;28.53;;;26.00;;
21505;SDS011;10914;48.886;9.394;2023-07-02T07:15:58;27.60;;;25.33;;
21505;SDS011;10914;48.886;9.394;2023-07-02T07:18:23;26.93;;;24.90;;
21505;SDS011;10914;48.886;9.394;2023-07-02T07:20:48;28.70;;;26.33;;
21505;SDS011;10914;48.886;9.394;2023-07-02T07:23:15;28.73;;;26.20;;
21505;SDS011;10914;48.886;9.394;2023-07-02T07:25:40;28.27;;;25.92;;
21505;SDS011;10914;48.886;9.394;2023-07-02T07:28:06;28.40;;;26.08;;
21505;SDS011;10914;48.886;9.394;2023-07-02T07:30:31;27.17;;;25.08;;
21505;SDS011;10914;48.886;9.394;2023-07-02T07:32:57;26.77;;;24.77;;
21505;SDS011;10914;48.886;9.394;2023-07-02T07:35:22;28.17;;;26.00;;
21505;SDS011;10914;48.886;9.394;2023-07-02T07:37:47;29.52;;;26.92;;
21505;SDS011;10914;48.886;9.394;2023-07-02T07:40:13;29.30;;;27.00;;
21505;SDS011;10914;48.886;9.394;2023-07-02T07:42:38;28.05;;;25.70;;
21505;SDS011;10914;48.886;9.394;2023-07-02T07:45:04;29.77;;;27.10;;
21505;SDS011;10914;48.886;9.394;2023-07-02T07:47:29;28.52;;;26.15;;
21505;SDS011;10914;48.886;9.394;2023-07-02T07:49:54;28.60;;;26.33;;
21505;SDS011;10914;48.886;9.394;2023-07-02T07:52:20;29.38;;;26.98;;
21505;SDS011;10914;48.886;9.394;2023-07-02T07:54:45;29.92;;;27.55;;
21505;SDS011;10914;48.886;9.394;2023-07-02T07:57:10;29.63;;;27.10;;
21505;SDS011;10914;48.886;9.394;2023-07-02T07:59:35;30.05;;;27.63;;
21505;SDS011;10914;48.886;9.394;2023-07-02T08:02:00;29.97;;;27.33;;
21505;SDS011;10914;48.886;9.394;2023-07-02T08:04:25;30.58;;;28.10;;
21505;SDS011;10914;48.886;9.394;2023-07-02T08:06:51;30.37;;;27.63;;
21505;SDS011;10914;48.886;9.394;2023-07-02T08:09:16;33.88;;;30.83;;
21505;SDS011;10914;48.886;9.394;2023-07-02T08:11:41;34.33;;;31.23;;
21505;SDS011;10914;48.886;9.394;2023-07-02T08:14:06;34.67;;;31.60;;
21505;SDS011;10914;48.886;9.394;2023-07-02T08:16:32;34.42;;;31.15;;
21505;SDS011;10914;48.886;9.394;2023-07-02T08:18:57;39.22;;;35.92;;
21505;SDS011;10914;48.886;9.394;2023-07-02T08:21:22;38.33;;;35.15;;
21505;SDS011;10914;48.886;9.394;2023-07-02T08:23:47;34.80;;;31.33;;
21505;SDS011;10914;48.886;9.394;2023-07-02T08:26:12;36.83;;;33.83;;
21505;SDS011;10914;48.886;9.394;2023-07-02T08:28:39;36.83;;;33.97;;
21505;SDS011;10914;48.886;9.394;2023-07-02T08:31:04;35.53;;;32.40;;
21505;SDS011;10914;48.886;9.394;2023-07-02T08:33:29;32.60;;;29.55;;
21505;SDS011;10914;48.886;9.394;2023-07-02T08:35:55;33.88;;;30.98;;
21505;SDS011;10914;48.886;9.394;2023-07-02T08:38:20;32.67;;;29.77;;
21505;SDS011;10914;48.886;9.394;2023-07-02T08:40:45;31.75;;;28.88;;
21505;SDS011;10914;48.886;9.394;2023-07-02T08:43:10;30.90;;;28.20;;
21505;SDS011;10914;48.886;9.394;2023-07-02T08:45:36;31.90;;;29.05;;
21505;SDS011;10914;48.886;9.394;2023-07-02T08:48:01;33.22;;;30.13;;
21505;SDS011;10914;48.886;9.394;2023-07-02T08:50:26;33.08;;;29.65;;
21505;SDS011;10914;48.886;9.394;2023-07-02T08:52:53;34.08;;;30.88;;
21505;SDS011;10914;48.886;9.394;2023-07-02T08:55:18;34.58;;;30.98;;
21505;SDS011;10914;48.886;9.394;2023-07-02T08:57:49;35.20;;;31.77;;
21505;SDS011;10914;48.886;9.394;2023-07-02T09:00:17;32.25;;;29.40;;
21505;SDS011;10914;48.886;9.394;2023-07-02T09:02:43;32.22;;;29.38;;
21505;SDS011;10914;48.886;9.394;2023-07-02T09:05:08;33.35;;;30.15;;
21505;SDS011;10914;48.886;9.394;2023-07-02T09:07:43;34.83;;;31.42;;
21505;SDS011;10914;48.886;9.394;2023-07-02T09:10:08;32.10;;;28.95;;
21505;SDS011;10914;48.886;9.394;2023-07-02T09:12:34;33.53;;;30.33;;
21505;SDS011;10914;48.886;9.394;2023-07-02T09:15:04;32.92;;;29.95;;
21505;SDS011;10914;48.886;9.394;2023-07-02T09:17:31;33.33;;;29.92;;
21505;SDS011;10914;48.886;9.394;2023-07-02T09:19:58;31.95;;;29.25;;
21505;SDS011;10914;48.886;9.394;2023-07-02T09:22:27;32.88;;;29.85;;
21505;SDS011;10914;48.886;9.394;2023-07-02T09:24:54;32.90;;;30.00;;
21505;SDS011;10914;48.886;9.394;2023-07-02T09:27:19;32.50;;;29.77;;
21505;SDS011;10914;48.886;9.394;2023-07-02T09:29:49;33.83;;;30.75;;
21505;SDS011;10914;48.886;9.394;2023-07-02T09:32:23;33.15;;;29.50;;
21505;SDS011;10914;48.886;9.394;2023-07-02T09:34:48;33.78;;;30.88;;
21505;SDS011;10914;48.886;9.394;2023-07-02T09:37:13;34.22;;;31.23;;
21505;SDS011;10914;48.886;9.394;2023-07-02T09:39:39;33.28;;;30.48;;
21505;SDS011;10914;48.886;9.394;2023-07-02T09:42:07;33.55;;;30.70;;
21505;SDS011;10914;48.886;9.394;2023-07-02T09:44:33;33.45;;;30.35;;
21505;SDS011;10914;48.886;9.394;2023-07-02T09:49:37;34.10;;;31.23;;
21505;SDS011;10914;48.886;9.394;2023-07-02T09:52:05;32.50;;;29.70;;
21505;SDS011;10914;48.886;9.394;2023-07-02T09:54:31;32.95;;;30.05;;
21505;SDS011;10914;48.886;9.394;2023-07-02T09:56:59;32.20;;;29.20;;
21505;SDS011;10914;48.886;9.394;2023-07-02T09:59:24;34.17;;;30.80;;
21505;SDS011;10914;48.886;9.394;2023-07-02T10:01:50;35.70;;;32.53;;
21505;SDS011;10914;48.886;9.394;2023-07-02T10:04:16;34.47;;;31.27;;
21505;SDS011;10914;48.886;9.394;2023-07-02T10:06:46;34.28;;;30.90;;
21505;SDS011;10914;48.886;9.394;2023-07-02T10:09:12;33.10;;;30.05;;
21505;SDS011;10914;48.886;9.394;2023-07-02T10:11:37;33.30;;;30.30;;
21505;SDS011;10914;48.886;9.394;2023-07-02T10:14:02;36.53;;;33.13;;
21505;SDS011;10914;48.886;9.394;2023-07-02T10:16:27;33.80;;;30.53;;
21505;SDS011;10914;48.886;9.394;2023-07-02T10:18:53;35.42;;;32.05;;
21505;SDS011;10914;48.886;9.394;2023-07-02T10:21:18;34.40;;;31.30;;
21505;SDS011;10914;48.886;9.394;2023-07-02T10:23:44;35.63;;;32.40;;
21505;SDS011;10914;48.886;9.394;2023-07-02T10:26:16;34.97;;;31.80;;
21505;SDS011;10914;48.886;9.394;2023-07-02T10:28:42;33.35;;;30.10;;
21505;SDS011;10914;48.886;9.394;2023-07-02T10:31:20;33.80;;;30.52;;
21505;SDS011;10914;48.886;9.394;2023-07-02T10:33:45;33.30;;;30.38;;
21505;SDS011;10914;48.886;9.394;2023-07-02T10:36:17;34.28;;;31.00;;
21505;SDS011;10914;48.886;9.394;2023-07-02T10:38:42;34.70;;;31.67;;
21505;SDS011;10914;48.886;9.394;2023-07-02T10:41:07;33.88;;;30.67;;
21505;SDS011;10914;48.886;9.394;2023-07-02T10:43:33;32.33;;;29.48;;
21505;SDS011;10914;48.886;9.394;2023-07-02T10:45:58;34.03;;;30.77;;
21505;SDS011;10914;48.886;9.394;2023-07-02T10:48:25;33.10;;;30.20;;
21505;SDS011;10914;48.886;9.394;2023-07-02T10:50:50;33.63;;;30.73;;
21505;SDS011;10914;48.886;9.394;2023-07-02T10:53:16;32.63;;;29.67;;
21505;SDS011;10914;48.886;9.394;2023-07-02T10:55:41;33.67;;;30.58;;
21505;SDS011;10914;48.886;9.394;2023-07-02T10:58:07;33.33;;;30.27;;
21505;SDS011;10914;48.886;9.394;2023-07-02T11:00:42;32.85;;;29.65;;
21505;SDS011;10914;48.886;9.394;2023-07-02T11:03:15;34.20;;;31.17;;
21505;SDS011;10914;48.886;9.394;2023-07-02T11:05:41;33.33;;;30.13;;
21505;SDS011;10914;48.886;9.394;2023-07-02T11:08:09;33.67;;;30.60;;
21505;SDS011;10914;48.886;9.394;2023-07-02T11:10:35;35.15;;;31.67;;
21505;SDS011;10914;48.886;9.394;2023-07-02T11:13:09;33.85;;;30.90;;
21505;SDS011;10914;48.886;9.394;2023-07-02T11:15:37;32.88;;;29.98;;
21505;SDS011;10914;48.886;9.394;2023-07-02T11:18:10;32.60;;;29.80;;
21505;SDS011;10914;48.886;9.394;2023-07-02T11:20:35;32.78;;;29.77;;
21505;SDS011;10914;48.886;9.394;2023-07-02T11:23:00;32.30;;;29.35;;
21505;SDS011;10914;48.886;9.394;2023-07-02T11:25:26;33.78;;;30.83;;
21505;SDS011;10914;48.886;9.394;2023-07-02T11:27:51;32.27;;;29.43;;
21505;SDS011;10914;48.886;9.394;2023-07-02T11:30:26;32.83;;;29.85;;
21505;SDS011;10914;48.886;9.394;2023-07-02T11:32:52;30.53;;;27.90;;
21505;SDS011;10914;48.886;9.394;2023-07-02T11:35:18;31.05;;;28.27;;
21505;SDS011;10914;48.886;9.394;2023-07-02T11:37:43;31.77;;;28.92;;
21505;SDS011;10914;48.886;9.394;2023-07-02T11:40:09;35.85;;;32.85;;
21505;SDS011;10914;48.886;9.394;2023-07-02T11:42:34;33.90;;;30.65;;
21505;SDS011;10914;48.886;9.394;2023-07-02T11:44:59;33.53;;;30.60;;
21505;SDS011;10914;48.886;9.394;2023-07-02T11:47:25;35.92;;;32.78;;
21505;SDS011;10914;48.886;9.394;2023-07-02T11:49:52;32.00;;;29.30;;
21505;SDS011;10914;48.886;9.394;2023-07-02T11:52:17;32.95;;;29.92;;
21505;SDS011;10914;48.886;9.394;2023-07-02T11:54:42;32.63;;;29.73;;
21505;SDS011;10914;48.886;9.394;2023-07-02T11:57:08;32.22;;;29.08;;
21505;SDS011;10914;48.886;9.394;2023-07-02T11:59:33;32.95;;;29.85;;
21505;SDS011;10914;48.886;9.394;2023-07-02T12:01:59;32.42;;;29.52;;
21505;SDS011;10914;48.886;9.394;2023-07-02T12:04:24;32.03;;;29.13;;
21505;SDS011;10914;48.886;9.394;2023-07-02T12:06:49;32.43;;;29.63;;
21505;SDS011;10914;48.886;9.394;2023-07-02T12:09:14;32.15;;;29.33;;
21505;SDS011;10914;48.886;9.394;2023-07-02T12:11:40;32.90;;;30.00;;
21505;SDS011;10914;48.886;9.394;2023-07-02T12:14:05;32.88;;;29.98;;
21505;SDS011;10914;48.886;9.394;2023-07-02T12:16:30;33.60;;;30.55;;
21505;SDS011;10914;48.886;9.394;2023-07-02T12:18:55;30.67;;;28.17;;
21505;SDS011;10914;48.886;9.394;2023-07-02T12:21:21;32.17;;;29.37;;
21505;SDS011;10914;48.886;9.394;2023-07-02T12:23:46;31.43;;;28.60;;
21505;SDS011;10914;48.886;9.394;2023-07-02T12:26:11;29.35;;;26.83;;
21505;SDS011;10914;48.886;9.394;2023-07-02T12:28:36;31.30;;;28.52;;
21505;SDS011;10914;48.886;9.394;2023-07-02T12:31:02;30.95;;;28.25;;
21505;SDS011;10914;48.886;9.394;2023-07-02T12:33:27;31.10;;;28.35;;
21505;SDS011;10914;48.886;9.394;2023-07-02T12:35:53;32.38;;;29.58;;
21505;SDS011;10914;48.886;9.394;2023-07-02T12:38:18;31.60;;;28.60;;
21505;SDS011;10914;48.886;9.394;2023-07-02T12:40:43;31.43;;;28.53;;
21505;SDS011;10914;48.886;9.394;2023-07-02T12:43:08;30.90;;;28.13;;
21505;SDS011;10914;48.886;9.394;2023-07-02T12:45:33;30.40;;;27.33;;
21505;SDS011;10914;48.886;9.394;2023-07-02T12:47:59;30.77;;;28.07;;
21505;SDS011;10914;48.886;9.394;2023-07-02T12:50:24;30.52;;;27.73;;
21505;SDS011;10914;48.886;9.394;2023-07-02T12:52:49;29.93;;;27.23;;
21505;SDS011;10914;48.886;9.394;2023-07-02T12:55:14;28.83;;;26.13;;
21505;SDS011;10914;48.886;9.394;2023-07-02T12:57:40;28.20;;;25.83;;
21505;SDS011;10914;48.886;9.394;2023-07-02T13:00:05;30.00;;;26.83;;
21505;SDS011;10914;48.886;9.394;2023-07-02T13:02:31;28.98;;;26.50;;
21505;SDS011;10914;48.886;9.394;2023-07-02T13:04:56;30.80;;;28.00;;
21505;SDS011;10914;48.886;9.394;2023-07-02T13:07:21;29.50;;;26.67;;
21505;SDS011;10914;48.886;9.394;2023-07-02T13:09:48;30.77;;;28.02;;
21505;SDS011;10914;48.886;9.394;2023-07-02T13:12:14;28.30;;;25.90;;
21505;SDS011;10914;48.886;9.394;2023-07-02T13:14:39;30.48;;;27.85;;
21505;SDS011;10914;48.886;9.394;2023-07-02T13:17:04;29.87;;;27.27;;
21505;SDS011;10914;48.886;9.394;2023-07-02T13:19:30;30.85;;;28.10;;
21505;SDS011;10914;48.886;9.394;2023-07-02T13:21:55;30.17;;;27.65;;
21505;SDS011;10914;48.886;9.394;2023-07-02T13:24:20;28.83;;;26.33;;
21505;SDS011;10914;48.886;9.394;2023-07-02T13:26:46;30.93;;;28.23;;
21505;SDS011;10914;48.886;9.394;2023-07-02T13:29:11;29.97;;;27.27;;
21505;SDS011;10914;48.886;9.394;2023-07-02T13:31:36;29.93;;;27.23;;
21505;SDS011;10914;48.886;9.394;2023-07-02T13:34:01;28.33;;;25.97;;
21505;SDS011;10914;48.886;9.394;2023-07-02T13:36:26;29.07;;;26.57;;
21505;SDS011;10914;48.886;9.394;2023-07-02T13:38:53;28.05;;;25.50;;
21505;SDS011;10914;48.886;9.394;2023-07-02T13:41:18;29.65;;;27.10;;
21505;SDS011;10914;48.886;9.394;2023-07-02T13:43:44;30.97;;;28.27;;
21505;SDS011;10914;48.886;9.394;2023-07-02T13:46:09;30.17;;;27.47;;
21505;SDS011;10914;48.886;9.394;2023-07-02T13:48:34;30.80;;;28.00;;
21505;SDS011;10914;48.886;9.394;2023-07-02T13:51:00;29.73;;;26.92;;
21505;SDS011;10914;48.886;9.394;2023-07-02T13:53:25;30.35;;;27.55;;
21505;SDS011;10914;48.886;9.394;2023-07-02T13:55:50;30.33;;;27.73;;
21505;SDS011;10914;48.886;9.394;2023-07-02T13:58:15;29.55;;;26.85;;
21505;SDS011;10914;48.886;9.394;2023-07-02T14:00:41;30.03;;;27.53;;
21505;SDS011;10914;48.886;9.394;2023-07-02T14:03:06;30.17;;;27.53;;
21505;SDS011;10914;48.886;9.394;2023-07-02T14:05:32;29.10;;;26.50;;
21505;SDS011;10914;48.886;9.394;2023-07-02T14:07:57;28.83;;;26.40;;
21505;SDS011;10914;48.886;9.394;2023-07-02T14:10:22;28.88;;;26.38;;
21505;SDS011;10914;48.886;9.394;2023-07-02T14:12:49;29.50;;;26.83;;
21505;SDS011;10914;48.886;9.394;2023-07-02T14:15:14;28.60;;;26.13;;